sensor_id;sensor_type;location;lat;lon;timestamp;P1;durP1;ratioP1;P2;durP2;ratioP2
14066;SDS011;7108;42.684;23.350;2023-02-24T00:02:23;232.73;;;78.33;;
14066;SDS011;7108;42.684;23.350;2023-02-24T00:04:48;219.47;;;78.57;;
14066;SDS011;7108;42.684;23.350;2023-02-24T00:07:18;246.23;;;81.30;;
14066;SDS011;7108;42.684;23.350;2023-02-24T00:09:44;235.48;;;79.45;;
14066;SDS011;7108;42.684;23.350;2023-02-24T00:12:11;216.13;;;76.30;;
14066;SDS011;7108;42.684;23.350;2023-02-24T00:14:40;214.18;;;78.50;;
14066;SDS011;7108;42.684;23.350;2023-02-24T00:17:07;213.48;;;76.97;;
14066;SDS011;7108;42.684;23.350;2023-02-24T00:19:34;214.15;;;76.50;;
14066;SDS011;7108;42.684;23.350;2023-02-24T00:22:01;210.40;;;75.95;;
14066;SDS011;7108;42.684;23.350;2023-02-24T00:24:27;210.73;;;76.40;;
14066;SDS011;7108;42.684;23.350;2023-02-24T00:26:54;237.90;;;79.43;;
14066;SDS011;7108;42.684;23.350;2023-02-24T00:29:21;210.48;;;75.97;;
14066;SDS011;7108;42.684;23.350;2023-02-24T00:31:57;252.02;;;81.68;;
14066;SDS011;7108;42.684;23.350;2023-02-24T00:34:31;216.02;;;76.75;;
14066;SDS011;7108;42.684;23.350;2023-02-24T00:36:59;209.45;;;78.38;;
14066;SDS011;7108;42.684;23.350;2023-02-24T00:39:25;245.40;;;80.28;;
14066;SDS011;7108;42.684;23.350;2023-02-24T00:41:57;240.37;;;81.07;;
14066;SDS011;7108;42.684;23.350;2023-02-24T00:44:33;208.32;;;77.25;;
14066;SDS011;7108;42.684;23.350;2023-02-24T00:47:06;211.30;;;77.40;;
14066;SDS011;7108;42.684;23.350;2023-02-24T00:49:34;208.85;;;74.97;;
14066;SDS011;7108;42.684;23.350;2023-02-24T00:52:06;214.45;;;75.70;;
14066;SDS011;7108;42.684;23.350;2023-02-24T00:54:36;215.00;;;75.43;;
14066;SDS011;7108;42.684;23.350;2023-02-24T00:57:01;210.30;;;77.47;;
14066;SDS011;7108;42.684;23.350;2023-02-24T00:59:27;237.00;;;78.87;;
14066;SDS011;7108;42.684;23.350;2023-02-24T01:01:53;231.73;;;79.15;;
14066;SDS011;7108;42.684;23.350;2023-02-24T01:04:19;225.90;;;78.88;;
14066;SDS011;7108;42.684;23.350;2023-02-24T01:06:49;238.02;;;78.53;;
14066;SDS011;7108;42.684;23.350;2023-02-24T01:09:25;237.63;;;79.47;;
14066;SDS011;7108;42.684;23.350;2023-02-24T01:11:54;233.98;;;78.88;;
14066;SDS011;7108;42.684;23.350;2023-02-24T01:14:42;228.25;;;78.78;;
14066;SDS011;7108;42.684;23.350;2023-02-24T01:17:13;222.35;;;78.03;;
14066;SDS011;7108;42.684;23.350;2023-02-24T01:19:40;215.27;;;77.57;;
14066;SDS011;7108;42.684;23.350;2023-02-24T01:22:07;207.70;;;77.15;;
14066;SDS011;7108;42.684;23.350;2023-02-24T01:24:35;204.75;;;73.97;;
14066;SDS011;7108;42.684;23.350;2023-02-24T01:27:03;197.32;;;73.53;;
14066;SDS011;7108;42.684;23.350;2023-02-24T01:29:32;200.07;;;74.35;;
14066;SDS011;7108;42.684;23.350;2023-02-24T01:32:03;205.20;;;74.40;;
14066;SDS011;7108;42.684;23.350;2023-02-24T01:34:29;206.38;;;74.45;;
14066;SDS011;7108;42.684;23.350;2023-02-24T01:36:55;223.27;;;75.60;;
14066;SDS011;7108;42.684;23.350;2023-02-24T01:39:21;221.63;;;76.10;;
14066;SDS011;7108;42.684;23.350;2023-02-24T01:41:47;232.10;;;78.47;;
14066;SDS011;7108;42.684;23.350;2023-02-24T01:46:44;227.02;;;76.53;;
14066;SDS011;7108;42.684;23.350;2023-02-24T01:52:13;232.63;;;77.85;;
14066;SDS011;7108;42.684;23.350;2023-02-24T01:57:09;200.27;;;73.57;;
14066;SDS011;7108;42.684;23.350;2023-02-24T01:59:40;218.27;;;77.18;;
14066;SDS011;7108;42.684;23.350;2023-02-24T02:02:08;213.23;;;75.80;;
14066;SDS011;7108;42.684;23.350;2023-02-24T02:07:02;234.15;;;80.07;;
14066;SDS011;7108;42.684;23.350;2023-02-24T02:09:29;213.85;;;77.82;;
14066;SDS011;7108;42.684;23.350;2023-02-24T02:11:56;227.95;;;77.82;;
14066;SDS011;7108;42.684;23.350;2023-02-24T02:14:22;230.03;;;77.67;;
14066;SDS011;7108;42.684;23.350;2023-02-24T02:30:49;195.20;;;71.05;;
14066;SDS011;7108;42.684;23.350;2023-02-24T02:41:52;198.38;;;74.63;;
14066;SDS011;7108;42.684;23.350;2023-02-24T02:44:38;216.20;;;75.95;;
14066;SDS011;7108;42.684;23.350;2023-02-24T02:47:17;229.43;;;77.45;;
14066;SDS011;7108;42.684;23.350;2023-02-24T02:49:54;202.13;;;75.22;;
14066;SDS011;7108;42.684;23.350;2023-02-24T02:52:39;229.00;;;77.10;;
14066;SDS011;7108;42.684;23.350;2023-02-24T02:55:11;193.13;;;71.78;;
14066;SDS011;7108;42.684;23.350;2023-02-24T02:57:46;212.98;;;74.07;;
14066;SDS011;7108;42.684;23.350;2023-02-24T03:00:20;220.23;;;75.00;;
14066;SDS011;7108;42.684;23.350;2023-02-24T03:02:53;223.05;;;74.65;;
14066;SDS011;7108;42.684;23.350;2023-02-24T03:05:28;235.40;;;75.97;;
14066;SDS011;7108;42.684;23.350;2023-02-24T03:07:58;198.63;;;74.10;;
14066;SDS011;7108;42.684;23.350;2023-02-24T03:10:28;198.20;;;73.57;;
14066;SDS011;7108;42.684;23.350;2023-02-24T03:12:58;196.18;;;73.50;;
14066;SDS011;7108;42.684;23.350;2023-02-24T03:15:28;211.70;;;76.07;;
14066;SDS011;7108;42.684;23.350;2023-02-24T03:18:00;228.13;;;75.75;;
14066;SDS011;7108;42.684;23.350;2023-02-24T03:20:35;198.25;;;74.70;;
14066;SDS011;7108;42.684;23.350;2023-02-24T03:23:18;208.85;;;72.75;;
14066;SDS011;7108;42.684;23.350;2023-02-24T03:25:55;216.70;;;74.03;;
14066;SDS011;7108;42.684;23.350;2023-02-24T03:28:30;221.68;;;75.75;;
14066;SDS011;7108;42.684;23.350;2023-02-24T03:31:08;197.57;;;75.20;;
14066;SDS011;7108;42.684;23.350;2023-02-24T03:33:47;209.60;;;76.25;;
14066;SDS011;7108;42.684;23.350;2023-02-24T03:36:24;211.98;;;74.53;;
14066;SDS011;7108;42.684;23.350;2023-02-24T03:38:51;216.63;;;73.82;;
14066;SDS011;7108;42.684;23.350;2023-02-24T03:41:17;212.10;;;72.70;;
14066;SDS011;7108;42.684;23.350;2023-02-24T03:43:44;202.10;;;75.57;;
14066;SDS011;7108;42.684;23.350;2023-02-24T03:46:20;209.52;;;74.95;;
14066;SDS011;7108;42.684;23.350;2023-02-24T03:48:49;192.40;;;71.43;;
14066;SDS011;7108;42.684;23.350;2023-02-24T03:51:24;211.88;;;75.95;;
14066;SDS011;7108;42.684;23.350;2023-02-24T03:54:11;219.05;;;76.13;;
14066;SDS011;7108;42.684;23.350;2023-02-24T04:00:10;189.80;;;70.95;;
14066;SDS011;7108;42.684;23.350;2023-02-24T04:05:40;191.70;;;70.40;;
14066;SDS011;7108;42.684;23.350;2023-02-24T04:08:11;204.30;;;73.15;;
14066;SDS011;7108;42.684;23.350;2023-02-24T04:13:29;220.00;;;76.20;;
14066;SDS011;7108;42.684;23.350;2023-02-24T04:16:13;189.35;;;68.15;;
14066;SDS011;7108;42.684;23.350;2023-02-24T04:18:52;232.32;;;75.85;;
14066;SDS011;7108;42.684;23.350;2023-02-24T04:21:22;215.20;;;82.57;;
14066;SDS011;7108;42.684;23.350;2023-02-24T04:23:50;231.70;;;75.93;;
14066;SDS011;7108;42.684;23.350;2023-02-24T04:26:17;225.35;;;76.88;;
14066;SDS011;7108;42.684;23.350;2023-02-24T04:28:44;222.57;;;73.50;;
14066;SDS011;7108;42.684;23.350;2023-02-24T04:31:15;224.80;;;74.95;;
14066;SDS011;7108;42.684;23.350;2023-02-24T04:33:43;222.38;;;74.57;;
14066;SDS011;7108;42.684;23.350;2023-02-24T04:36:17;216.30;;;73.18;;
14066;SDS011;7108;42.684;23.350;2023-02-24T04:38:44;225.43;;;74.68;;
14066;SDS011;7108;42.684;23.350;2023-02-24T04:41:10;193.57;;;69.73;;
14066;SDS011;7108;42.684;23.350;2023-02-24T04:43:36;233.00;;;122.45;;
14066;SDS011;7108;42.684;23.350;2023-02-24T04:46:02;200.70;;;76.00;;
14066;SDS011;7108;42.684;23.350;2023-02-24T04:48:32;216.63;;;96.93;;
14066;SDS011;7108;42.684;23.350;2023-02-24T04:50:59;199.23;;;74.70;;
14066;SDS011;7108;42.684;23.350;2023-02-24T04:53:26;225.88;;;86.15;;
14066;SDS011;7108;42.684;23.350;2023-02-24T04:55:52;235.13;;;75.80;;
14066;SDS011;7108;42.684;23.350;2023-02-24T04:58:21;217.40;;;74.63;;
14066;SDS011;7108;42.684;23.350;2023-02-24T05:00:52;323.42;;;207.57;;
14066;SDS011;7108;42.684;23.350;2023-02-24T05:03:19;230.40;;;77.20;;
14066;SDS011;7108;42.684;23.350;2023-02-24T05:05:50;217.00;;;72.70;;
14066;SDS011;7108;42.684;23.350;2023-02-24T05:08:20;223.40;;;75.30;;
14066;SDS011;7108;42.684;23.350;2023-02-24T05:10:46;218.05;;;73.63;;
14066;SDS011;7108;42.684;23.350;2023-02-24T05:13:13;216.40;;;76.47;;
14066;SDS011;7108;42.684;23.350;2023-02-24T05:15:40;218.10;;;74.25;;
14066;SDS011;7108;42.684;23.350;2023-02-24T05:18:09;211.00;;;74.93;;
14066;SDS011;7108;42.684;23.350;2023-02-24T05:20:45;202.38;;;71.97;;
14066;SDS011;7108;42.684;23.350;2023-02-24T05:23:38;206.75;;;74.15;;
14066;SDS011;7108;42.684;23.350;2023-02-24T05:26:08;214.27;;;76.88;;
14066;SDS011;7108;42.684;23.350;2023-02-24T05:28:38;201.20;;;71.50;;
14066;SDS011;7108;42.684;23.350;2023-02-24T05:31:12;203.07;;;73.30;;
14066;SDS011;7108;42.684;23.350;2023-02-24T05:33:46;207.23;;;73.10;;
14066;SDS011;7108;42.684;23.350;2023-02-24T05:36:15;229.00;;;75.03;;
14066;SDS011;7108;42.684;23.350;2023-02-24T05:38:42;218.95;;;72.60;;
14066;SDS011;7108;42.684;23.350;2023-02-24T05:41:10;201.88;;;72.05;;
14066;SDS011;7108;42.684;23.350;2023-02-24T05:43:41;206.95;;;71.30;;
14066;SDS011;7108;42.684;23.350;2023-02-24T05:48:52;219.98;;;72.50;;
14066;SDS011;7108;42.684;23.350;2023-02-24T05:51:22;211.65;;;72.85;;
14066;SDS011;7108;42.684;23.350;2023-02-24T05:53:50;216.57;;;73.47;;
14066;SDS011;7108;42.684;23.350;2023-02-24T05:56:22;200.75;;;80.28;;
14066;SDS011;7108;42.684;23.350;2023-02-24T05:58:49;221.73;;;72.68;;
14066;SDS011;7108;42.684;23.350;2023-02-24T06:01:25;226.70;;;73.22;;
14066;SDS011;7108;42.684;23.350;2023-02-24T06:04:02;198.07;;;69.18;;
14066;SDS011;7108;42.684;23.350;2023-02-24T06:06:32;189.77;;;70.88;;
14066;SDS011;7108;42.684;23.350;2023-02-24T06:09:06;211.10;;;70.32;;
14066;SDS011;7108;42.684;23.350;2023-02-24T06:11:38;193.38;;;73.65;;
14066;SDS011;7108;42.684;23.350;2023-02-24T06:14:09;203.50;;;70.45;;
14066;SDS011;7108;42.684;23.350;2023-02-24T06:16:36;210.77;;;71.05;;
14066;SDS011;7108;42.684;23.350;2023-02-24T06:19:04;214.52;;;73.95;;
14066;SDS011;7108;42.684;23.350;2023-02-24T06:21:30;204.50;;;69.30;;
14066;SDS011;7108;42.684;23.350;2023-02-24T06:23:56;203.07;;;70.75;;
14066;SDS011;7108;42.684;23.350;2023-02-24T06:26:23;222.82;;;76.50;;
14066;SDS011;7108;42.684;23.350;2023-02-24T06:28:56;218.57;;;74.93;;
14066;SDS011;7108;42.684;23.350;2023-02-24T06:31:22;226.93;;;79.47;;
14066;SDS011;7108;42.684;23.350;2023-02-24T06:33:48;224.77;;;82.70;;
14066;SDS011;7108;42.684;23.350;2023-02-24T06:36:17;235.15;;;77.68;;
14066;SDS011;7108;42.684;23.350;2023-02-24T06:38:43;235.57;;;83.55;;
14066;SDS011;7108;42.684;23.350;2023-02-24T06:41:10;223.32;;;79.22;;
14066;SDS011;7108;42.684;23.350;2023-02-24T06:43:37;210.68;;;79.93;;
14066;SDS011;7108;42.684;23.350;2023-02-24T06:46:04;196.57;;;71.05;;
14066;SDS011;7108;42.684;23.350;2023-02-24T06:48:30;198.38;;;71.55;;
14066;SDS011;7108;42.684;23.350;2023-02-24T06:50:58;215.05;;;73.00;;
14066;SDS011;7108;42.684;23.350;2023-02-24T06:53:43;222.43;;;72.18;;
14066;SDS011;7108;42.684;23.350;2023-02-24T06:56:09;198.57;;;71.07;;
14066;SDS011;7108;42.684;23.350;2023-02-24T06:58:44;223.60;;;74.85;;
14066;SDS011;7108;42.684;23.350;2023-02-24T07:01:11;207.25;;;72.28;;
14066;SDS011;7108;42.684;23.350;2023-02-24T07:03:39;198.25;;;72.22;;
14066;SDS011;7108;42.684;23.350;2023-02-24T07:06:32;195.30;;;70.57;;
14066;SDS011;7108;42.684;23.350;2023-02-24T07:09:04;198.13;;;73.15;;
14066;SDS011;7108;42.684;23.350;2023-02-24T07:11:32;210.07;;;72.88;;
14066;SDS011;7108;42.684;23.350;2023-02-24T07:13:59;196.18;;;68.70;;
14066;SDS011;7108;42.684;23.350;2023-02-24T07:16:25;222.93;;;74.07;;
14066;SDS011;7108;42.684;23.350;2023-02-24T07:18:56;216.55;;;75.45;;
14066;SDS011;7108;42.684;23.350;2023-02-24T07:21:23;221.57;;;74.47;;
14066;SDS011;7108;42.684;23.350;2023-02-24T07:23:50;237.60;;;78.32;;
14066;SDS011;7108;42.684;23.350;2023-02-24T07:26:21;230.57;;;77.00;;
14066;SDS011;7108;42.684;23.350;2023-02-24T07:28:48;213.38;;;73.40;;
14066;SDS011;7108;42.684;23.350;2023-02-24T07:31:16;233.57;;;77.32;;
14066;SDS011;7108;42.684;23.350;2023-02-24T07:33:46;229.68;;;80.43;;
14066;SDS011;7108;42.684;23.350;2023-02-24T07:36:13;220.90;;;75.13;;
14066;SDS011;7108;42.684;23.350;2023-02-24T07:38:40;212.32;;;73.93;;
14066;SDS011;7108;42.684;23.350;2023-02-24T07:41:07;199.40;;;72.28;;
14066;SDS011;7108;42.684;23.350;2023-02-24T07:43:37;209.05;;;75.45;;
14066;SDS011;7108;42.684;23.350;2023-02-24T07:46:14;205.50;;;74.47;;
14066;SDS011;7108;42.684;23.350;2023-02-24T07:48:43;244.57;;;103.45;;
14066;SDS011;7108;42.684;23.350;2023-02-24T07:51:11;207.63;;;74.85;;
14066;SDS011;7108;42.684;23.350;2023-02-24T07:53:39;227.20;;;74.63;;
14066;SDS011;7108;42.684;23.350;2023-02-24T07:56:06;202.45;;;73.30;;
14066;SDS011;7108;42.684;23.350;2023-02-24T07:58:37;213.82;;;95.20;;
14066;SDS011;7108;42.684;23.350;2023-02-24T08:01:06;245.27;;;128.05;;
14066;SDS011;7108;42.684;23.350;2023-02-24T08:03:36;251.07;;;124.78;;
14066;SDS011;7108;42.684;23.350;2023-02-24T08:06:07;227.98;;;99.55;;
14066;SDS011;7108;42.684;23.350;2023-02-24T08:08:50;225.40;;;83.22;;
14066;SDS011;7108;42.684;23.350;2023-02-24T08:11:24;260.02;;;109.57;;
14066;SDS011;7108;42.684;23.350;2023-02-24T08:13:54;246.70;;;97.97;;
14066;SDS011;7108;42.684;23.350;2023-02-24T08:16:21;241.70;;;91.00;;
14066;SDS011;7108;42.684;23.350;2023-02-24T08:18:47;237.93;;;89.87;;
14066;SDS011;7108;42.684;23.350;2023-02-24T08:21:21;247.27;;;95.03;;
14066;SDS011;7108;42.684;23.350;2023-02-24T08:23:47;246.60;;;91.07;;
14066;SDS011;7108;42.684;23.350;2023-02-24T08:26:13;238.50;;;86.60;;
14066;SDS011;7108;42.684;23.350;2023-02-24T08:28:39;205.63;;;81.43;;
14066;SDS011;7108;42.684;23.350;2023-02-24T08:31:04;207.80;;;86.10;;
14066;SDS011;7108;42.684;23.350;2023-02-24T08:33:30;223.00;;;87.37;;
14066;SDS011;7108;42.684;23.350;2023-02-24T08:35:56;248.00;;;91.43;;
14066;SDS011;7108;42.684;23.350;2023-02-24T08:38:25;238.50;;;93.60;;
14066;SDS011;7108;42.684;23.350;2023-02-24T08:41:03;204.32;;;81.72;;
14066;SDS011;7108;42.684;23.350;2023-02-24T08:43:37;213.00;;;80.70;;
14066;SDS011;7108;42.684;23.350;2023-02-24T08:48:36;204.23;;;88.00;;
14066;SDS011;7108;42.684;23.350;2023-02-24T08:51:17;211.73;;;75.85;;
14066;SDS011;7108;42.684;23.350;2023-02-24T08:53:46;223.05;;;75.93;;
14066;SDS011;7108;42.684;23.350;2023-02-24T08:56:17;250.43;;;84.00;;
14066;SDS011;7108;42.684;23.350;2023-02-24T08:58:48;252.50;;;104.18;;
14066;SDS011;7108;42.684;23.350;2023-02-24T09:01:21;251.18;;;93.55;;
14066;SDS011;7108;42.684;23.350;2023-02-24T09:03:58;213.68;;;88.25;;
14066;SDS011;7108;42.684;23.350;2023-02-24T09:09:17;246.30;;;90.57;;
14066;SDS011;7108;42.684;23.350;2023-02-24T09:11:56;268.25;;;128.18;;
14066;SDS011;7108;42.684;23.350;2023-02-24T09:14:26;251.15;;;93.35;;
14066;SDS011;7108;42.684;23.350;2023-02-24T09:16:54;294.63;;;202.07;;
14066;SDS011;7108;42.684;23.350;2023-02-24T09:22:20;236.77;;;99.53;;
14066;SDS011;7108;42.684;23.350;2023-02-24T09:27:52;258.23;;;101.17;;
14066;SDS011;7108;42.684;23.350;2023-02-24T09:30:42;224.20;;;93.57;;
14066;SDS011;7108;42.684;23.350;2023-02-24T09:33:35;230.35;;;98.18;;
14066;SDS011;7108;42.684;23.350;2023-02-24T09:38:41;229.10;;;92.87;;
14066;SDS011;7108;42.684;23.350;2023-02-24T09:47:45;208.15;;;75.43;;
14066;SDS011;7108;42.684;23.350;2023-02-24T09:52:53;232.67;;;77.60;;
14066;SDS011;7108;42.684;23.350;2023-02-24T09:55:22;217.03;;;76.23;;
14066;SDS011;7108;42.684;23.350;2023-02-24T09:58:03;219.63;;;75.87;;
14066;SDS011;7108;42.684;23.350;2023-02-24T10:06:38;211.67;;;80.67;;
14066;SDS011;7108;42.684;23.350;2023-02-24T10:11:58;248.77;;;93.37;;
14066;SDS011;7108;42.684;23.350;2023-02-24T10:14:55;223.70;;;86.00;;
14066;SDS011;7108;42.684;23.350;2023-02-24T10:17:42;240.57;;;79.93;;
14066;SDS011;7108;42.684;23.350;2023-02-24T10:20:18;232.83;;;82.77;;
14066;SDS011;7108;42.684;23.350;2023-02-24T10:33:25;241.77;;;97.10;;
14066;SDS011;7108;42.684;23.350;2023-02-24T10:36:06;239.23;;;103.33;;
14066;SDS011;7108;42.684;23.350;2023-02-24T10:38:38;226.53;;;100.20;;
14066;SDS011;7108;42.684;23.350;2023-02-24T10:41:12;232.97;;;97.53;;
14066;SDS011;7108;42.684;23.350;2023-02-24T10:43:38;247.53;;;96.47;;
14066;SDS011;7108;42.684;23.350;2023-02-24T10:46:29;228.97;;;94.10;;
14066;SDS011;7108;42.684;23.350;2023-02-24T10:49:00;226.93;;;96.27;;
14066;SDS011;7108;42.684;23.350;2023-02-24T10:51:31;256.57;;;103.73;;
14066;SDS011;7108;42.684;23.350;2023-02-24T10:54:24;236.27;;;108.50;;
14066;SDS011;7108;42.684;23.350;2023-02-24T10:57:09;251.30;;;103.43;;
14066;SDS011;7108;42.684;23.350;2023-02-24T10:59:55;256.93;;;89.27;;
14066;SDS011;7108;42.684;23.350;2023-02-24T11:02:45;234.13;;;87.40;;
14066;SDS011;7108;42.684;23.350;2023-02-24T11:05:24;238.63;;;81.20;;
14066;SDS011;7108;42.684;23.350;2023-02-24T11:08:16;231.30;;;82.30;;
14066;SDS011;7108;42.684;23.350;2023-02-24T11:11:23;259.90;;;102.03;;
14066;SDS011;7108;42.684;23.350;2023-02-24T11:14:01;266.50;;;114.47;;
14066;SDS011;7108;42.684;23.350;2023-02-24T11:16:46;250.40;;;88.40;;
14066;SDS011;7108;42.684;23.350;2023-02-24T11:19:36;226.33;;;88.83;;
14066;SDS011;7108;42.684;23.350;2023-02-24T11:22:16;252.57;;;110.23;;
14066;SDS011;7108;42.684;23.350;2023-02-24T11:24:46;245.53;;;88.87;;
14066;SDS011;7108;42.684;23.350;2023-02-24T11:27:14;353.73;;;190.00;;
14066;SDS011;7108;42.684;23.350;2023-02-24T11:35:01;250.80;;;84.70;;
14066;SDS011;7108;42.684;23.350;2023-02-24T11:38:06;252.40;;;86.17;;
14066;SDS011;7108;42.684;23.350;2023-02-24T11:40:53;250.90;;;88.83;;
14066;SDS011;7108;42.684;23.350;2023-02-24T11:43:29;228.70;;;80.90;;
14066;SDS011;7108;42.684;23.350;2023-02-24T11:46:03;235.57;;;93.53;;
14066;SDS011;7108;42.684;23.350;2023-02-24T11:51:12;232.37;;;86.03;;
14066;SDS011;7108;42.684;23.350;2023-02-24T11:53:49;240.80;;;85.97;;
14066;SDS011;7108;42.684;23.350;2023-02-24T11:56:23;273.30;;;89.60;;
14066;SDS011;7108;42.684;23.350;2023-02-24T12:04:43;283.90;;;119.20;;
14066;SDS011;7108;42.684;23.350;2023-02-24T12:07:24;277.87;;;118.73;;
14066;SDS011;7108;42.684;23.350;2023-02-24T12:15:31;269.70;;;117.73;;
14066;SDS011;7108;42.684;23.350;2023-02-24T12:20:56;289.10;;;120.37;;
14066;SDS011;7108;42.684;23.350;2023-02-24T12:26:19;254.57;;;114.10;;
14066;SDS011;7108;42.684;23.350;2023-02-24T12:34:13;266.23;;;94.43;;
14066;SDS011;7108;42.684;23.350;2023-02-24T12:36:57;280.50;;;104.13;;
14066;SDS011;7108;42.684;23.350;2023-02-24T12:47:13;255.50;;;90.43;;
14066;SDS011;7108;42.684;23.350;2023-02-24T13:05:43;270.00;;;103.07;;
14066;SDS011;7108;42.684;23.350;2023-02-24T13:11:06;260.03;;;105.07;;
14066;SDS011;7108;42.684;23.350;2023-02-24T13:13:46;267.37;;;102.53;;
14066;SDS011;7108;42.684;23.350;2023-02-24T13:16:27;282.07;;;107.37;;
14066;SDS011;7108;42.684;23.350;2023-02-24T13:19:03;276.97;;;104.67;;
14066;SDS011;7108;42.684;23.350;2023-02-24T13:24:35;246.83;;;102.37;;
14066;SDS011;7108;42.684;23.350;2023-02-24T13:29:46;271.93;;;108.57;;
14066;SDS011;7108;42.684;23.350;2023-02-24T13:37:45;281.87;;;92.77;;
14066;SDS011;7108;42.684;23.350;2023-02-24T13:42:40;244.00;;;85.37;;
14066;SDS011;7108;42.684;23.350;2023-02-24T13:50:22;300.47;;;122.10;;
14066;SDS011;7108;42.684;23.350;2023-02-24T13:53:01;283.70;;;112.23;;
14066;SDS011;7108;42.684;23.350;2023-02-24T14:03:23;267.93;;;101.53;;
14066;SDS011;7108;42.684;23.350;2023-02-24T14:05:51;268.47;;;99.17;;
14066;SDS011;7108;42.684;23.350;2023-02-24T14:08:21;283.67;;;101.30;;
14066;SDS011;7108;42.684;23.350;2023-02-24T14:10:54;258.63;;;92.13;;
14066;SDS011;7108;42.684;23.350;2023-02-24T14:13:24;337.97;;;106.13;;
14066;SDS011;7108;42.684;23.350;2023-02-24T14:15:54;292.77;;;102.57;;
14066;SDS011;7108;42.684;23.350;2023-02-24T14:18:27;336.67;;;103.17;;
14066;SDS011;7108;42.684;23.350;2023-02-24T14:20:54;265.03;;;95.33;;
14066;SDS011;7108;42.684;23.350;2023-02-24T14:23:22;301.70;;;99.60;;
14066;SDS011;7108;42.684;23.350;2023-02-24T14:25:57;282.80;;;103.53;;
14066;SDS011;7108;42.684;23.350;2023-02-24T14:28:31;253.30;;;106.50;;
14066;SDS011;7108;42.684;23.350;2023-02-24T14:31:05;263.63;;;108.47;;
14066;SDS011;7108;42.684;23.350;2023-02-24T14:33:32;269.37;;;107.77;;
14066;SDS011;7108;42.684;23.350;2023-02-24T14:36:00;243.20;;;88.30;;
14066;SDS011;7108;42.684;23.350;2023-02-24T14:38:37;258.60;;;92.07;;
14066;SDS011;7108;42.684;23.350;2023-02-24T14:41:05;233.90;;;88.33;;
14066;SDS011;7108;42.684;23.350;2023-02-24T14:43:43;255.83;;;92.03;;
14066;SDS011;7108;42.684;23.350;2023-02-24T14:46:08;266.43;;;123.23;;
14066;SDS011;7108;42.684;23.350;2023-02-24T14:48:34;238.97;;;87.07;;
14066;SDS011;7108;42.684;23.350;2023-02-24T14:51:10;263.93;;;116.20;;
14066;SDS011;7108;42.684;23.350;2023-02-24T14:53:47;289.10;;;94.73;;
14066;SDS011;7108;42.684;23.350;2023-02-24T14:56:15;262.30;;;92.60;;
14066;SDS011;7108;42.684;23.350;2023-02-24T14:58:46;259.90;;;89.57;;
14066;SDS011;7108;42.684;23.350;2023-02-24T15:01:36;299.50;;;92.47;;
14066;SDS011;7108;42.684;23.350;2023-02-24T15:04:10;278.20;;;127.53;;
14066;SDS011;7108;42.684;23.350;2023-02-24T15:06:40;251.63;;;101.67;;
14066;SDS011;7108;42.684;23.350;2023-02-24T15:09:21;257.40;;;88.70;;
14066;SDS011;7108;42.684;23.350;2023-02-24T15:11:49;282.23;;;90.63;;
14066;SDS011;7108;42.684;23.350;2023-02-24T15:16:46;272.37;;;89.00;;
14066;SDS011;7108;42.684;23.350;2023-02-24T15:21:58;253.70;;;86.77;;
14066;SDS011;7108;42.684;23.350;2023-02-24T15:24:27;259.03;;;87.73;;
14066;SDS011;7108;42.684;23.350;2023-02-24T15:29:21;278.73;;;90.03;;
14066;SDS011;7108;42.684;23.350;2023-02-24T15:31:50;262.23;;;89.50;;
14066;SDS011;7108;42.684;23.350;2023-02-24T15:34:21;273.50;;;90.00;;
14066;SDS011;7108;42.684;23.350;2023-02-24T15:36:56;251.50;;;87.60;;
14066;SDS011;7108;42.684;23.350;2023-02-24T15:39:28;274.97;;;97.87;;
14066;SDS011;7108;42.684;23.350;2023-02-24T15:42:07;274.13;;;93.40;;
14066;SDS011;7108;42.684;23.350;2023-02-24T15:44:51;243.97;;;87.17;;
14066;SDS011;7108;42.684;23.350;2023-02-24T15:47:20;291.20;;;93.87;;
14066;SDS011;7108;42.684;23.350;2023-02-24T15:49:48;273.63;;;91.57;;
14066;SDS011;7108;42.684;23.350;2023-02-24T15:52:13;288.70;;;94.37;;
14066;SDS011;7108;42.684;23.350;2023-02-24T15:54:41;275.30;;;90.33;;
14066;SDS011;7108;42.684;23.350;2023-02-24T15:57:11;285.50;;;104.43;;
14066;SDS011;7108;42.684;23.350;2023-02-24T15:59:40;273.37;;;92.63;;
14066;SDS011;7108;42.684;23.350;2023-02-24T16:02:11;256.97;;;90.13;;
14066;SDS011;7108;42.684;23.350;2023-02-24T16:04:41;274.60;;;88.37;;
14066;SDS011;7108;42.684;23.350;2023-02-24T16:07:07;263.53;;;101.73;;
14066;SDS011;7108;42.684;23.350;2023-02-24T16:09:40;265.97;;;92.10;;
14066;SDS011;7108;42.684;23.350;2023-02-24T16:12:09;267.33;;;104.97;;
14066;SDS011;7108;42.684;23.350;2023-02-24T16:14:39;250.77;;;87.43;;
14066;SDS011;7108;42.684;23.350;2023-02-24T16:17:07;391.77;;;152.93;;
14066;SDS011;7108;42.684;23.350;2023-02-24T16:19:42;363.47;;;131.80;;
14066;SDS011;7108;42.684;23.350;2023-02-24T16:22:08;269.90;;;98.73;;
14066;SDS011;7108;42.684;23.350;2023-02-24T16:24:37;251.83;;;90.60;;
14066;SDS011;7108;42.684;23.350;2023-02-24T16:27:03;257.80;;;91.23;;
14066;SDS011;7108;42.684;23.350;2023-02-24T16:29:30;246.33;;;88.20;;
14066;SDS011;7108;42.684;23.350;2023-02-24T16:31:55;254.53;;;91.97;;
14066;SDS011;7108;42.684;23.350;2023-02-24T16:34:21;277.57;;;90.20;;
14066;SDS011;7108;42.684;23.350;2023-02-24T16:36:46;271.37;;;91.90;;
14066;SDS011;7108;42.684;23.350;2023-02-24T16:39:12;284.80;;;91.07;;
14066;SDS011;7108;42.684;23.350;2023-02-24T16:41:38;276.43;;;92.33;;
14066;SDS011;7108;42.684;23.350;2023-02-24T16:44:03;259.80;;;93.73;;
14066;SDS011;7108;42.684;23.350;2023-02-24T16:46:31;336.57;;;194.43;;
14066;SDS011;7108;42.684;23.350;2023-02-24T16:49:01;261.57;;;92.87;;
14066;SDS011;7108;42.684;23.350;2023-02-24T16:51:30;264.73;;;95.00;;
14066;SDS011;7108;42.684;23.350;2023-02-24T16:53:56;305.90;;;93.20;;
14066;SDS011;7108;42.684;23.350;2023-02-24T16:56:21;257.37;;;88.77;;
14066;SDS011;7108;42.684;23.350;2023-02-24T16:58:47;263.30;;;89.87;;
14066;SDS011;7108;42.684;23.350;2023-02-24T17:01:15;278.83;;;94.40;;
14066;SDS011;7108;42.684;23.350;2023-02-24T17:03:45;299.50;;;97.53;;
14066;SDS011;7108;42.684;23.350;2023-02-24T17:06:12;310.57;;;98.50;;
14066;SDS011;7108;42.684;23.350;2023-02-24T17:08:38;261.07;;;92.83;;
14066;SDS011;7108;42.684;23.350;2023-02-24T17:11:05;308.23;;;109.00;;
14066;SDS011;7108;42.684;23.350;2023-02-24T17:13:36;332.97;;;106.10;;
14066;SDS011;7108;42.684;23.350;2023-02-24T17:16:01;337.07;;;146.00;;
14066;SDS011;7108;42.684;23.350;2023-02-24T17:18:27;318.87;;;102.73;;
14066;SDS011;7108;42.684;23.350;2023-02-24T17:20:52;320.10;;;98.80;;
14066;SDS011;7108;42.684;23.350;2023-02-24T17:23:18;296.23;;;95.93;;
14066;SDS011;7108;42.684;23.350;2023-02-24T17:25:43;334.73;;;101.23;;
14066;SDS011;7108;42.684;23.350;2023-02-24T17:28:10;309.27;;;103.17;;
14066;SDS011;7108;42.684;23.350;2023-02-24T17:30:35;282.37;;;98.00;;